Charlotte, NC

7:16 AM EDT on July 28, 2016 (GMT -0400)
Weston Woods | | Change Station

Elev 705 ft 35.31 °N, 80.91 °W | Updated 16 seconds ago

Scattered Clouds
Scattered Clouds
76.3 °F
Feels Like 77 °F
N
0.0
Wind Variable Wind from ESE
Gusts 0.0 mph

Today
High -- | Low -- °F
--% Chance of Precip.
Yesterday
High -- | Low -- °F
Precip. -- in
Pressure 29.94 in
Visibility 10.0 miles
Clouds Few 18000 ft
Scattered Clouds 25000 ft
Heat Index 77 °F
Dew Point 71 °F
Humidity 85%
Rainfall 0.00 in
Snow Depth Not available.
6:29 AM 8:29 PM
Waning Crescent, 33% visible
METAR KCLT 281052Z 26004KT 10SM FEW180 SCT250 26/21 A2998 RMK AO2 SLP139 T02560206
Pressure 29.94 in
Visibility 10.0 miles
Clouds Few 18000 ft
Scattered Clouds 25000 ft
Heat Index 77 °F
Dew Point 71 °F
Humidity 85%
Rainfall 0.00 in
Snow Depth Not available.
6:29 AM 8:29 PM
Waning Crescent, 33% visible
METAR KCLT 281052Z 26004KT 10SM FEW180 SCT250 26/21 A2998 RMK AO2 SLP139 T02560206

10-Day Weather Forecast

Almanac

Astronomy

Jul. 28, 2016 Rise Set
Actual Time
Civil Twilight
Nautical Twilight
Astronomical Twilight
Moon
Length of Visible Light
Length of Day
Tomorrow will be .
, % of the Moon is Illuminated

Today's Extremes

State Highs State Lows

Community

WunderPhotos

Upload Photos

1,928,082 photos uploaded!

WunderBlog® & News

Nearby

Air Quality

  Air Quality AQ Index Pollutant
Not available.

Snow Depth

Station Depth Elevation

Earthquake Activity

City Distance Mag. Time & Date
Minimum magnitude displayed is 2.5.

Coastal Water Temperatures

Place Temperature

Stations

Nearby Weather Stations

Station Location Temp. Windchill Dew Point Humidity Wind Precip. Elev Updated Type
                   

Watches & Warnings

There are currently no watches in effect.